KMTW

Manitowoc County Airport

Manitowoc, Wisconsin, USA
METAR KMTW 230056Z AUTO 07003KT 10SM CLR 11/08 A3004 RMK AO2 SLP197 T01060083
Observed Flight Rules
May-23 @ 00:56 UTC (28 minutes ago) Visual Flight Rules
Wind Visibility Clouds
70° at 3 knots 10 miles
  • Clear skies
Temperatures Readings
Current 11°C / 52°F
Dewpoint 8°C / 46°F
Humidity 82%
Altimeter 30.04" Hg
Pressure 1019.7 hPa
Elevation 198
METAR KMTW 230056Z AUTO 07003KT 10SM CLR 11/08 A3004 RMK AO2 SLP197 T01060083
Observed Flight Rules
May-23 @ 00:56 UTC
(28 minutes ago)
VFR
Wind Visibility
70° at 3 knots 10 miles
Clouds
  • Clear skies
Temperature Dewpoint
11°C / 52°F 8°C / 46°F
Humidity Altimeter Pressure
82% 30.04" Hg 1019.7 hPa